Aviation Digital Data Service (ADDS)

Output produced by TAFs form (1958 UTC 25 February 2018)
found at http://aviationweather.gov/adds/tafs/
 
KIWA 251725Z 2518/2618 11006KT P6SM SKC 
     FM251900 29004KT P6SM SKC 
     FM260400 12006KT P6SM SKC